createdAt,value
2019-02-02T00:00:16.698Z,2.67
2019-02-02T00:01:16.517Z,2.72
2019-02-02T00:02:16.516Z,2.64
2019-02-02T00:03:16.558Z,2.72
2019-02-02T00:04:17.578Z,2.69
2019-02-02T00:05:16.647Z,2.49
2019-02-02T00:06:16.470Z,2.61
2019-02-02T00:07:16.454Z,2.60
2019-02-02T00:08:16.495Z,2.61
2019-02-02T00:09:16.476Z,2.56
2019-02-02T00:10:16.475Z,2.57
2019-02-02T00:11:16.483Z,2.49
2019-02-02T00:13:17.623Z,2.52
2019-02-02T00:14:16.414Z,2.52
2019-02-02T00:15:16.403Z,2.53
2019-02-02T00:16:16.378Z,2.56
2019-02-02T00:17:16.420Z,2.53
2019-02-02T00:18:16.417Z,2.39
2019-02-02T00:20:17.450Z,2.43
2019-02-02T00:21:37.373Z,2.52
2019-02-02T00:22:37.391Z,2.49
2019-02-02T00:23:37.365Z,2.42
2019-02-02T00:24:16.381Z,2.46
2019-02-02T00:25:16.273Z,2.43
2019-02-02T00:26:16.276Z,2.42
2019-02-02T00:27:16.285Z,2.38
2019-02-02T00:28:16.240Z,2.34
2019-02-02T00:29:16.297Z,2.28
2019-02-02T00:30:16.290Z,2.30
2019-02-02T00:31:20.405Z,2.27
2019-02-02T00:32:16.314Z,2.24
2019-02-02T00:33:18.237Z,2.23
2019-02-02T00:34:16.177Z,2.21
2019-02-02T00:35:16.175Z,2.17
2019-02-02T00:36:16.185Z,2.24
2019-02-02T00:37:16.159Z,2.20
2019-02-02T00:38:16.183Z,2.23
2019-02-02T00:39:16.189Z,2.25
2019-02-02T00:40:16.113Z,2.27
2019-02-02T00:41:16.269Z,2.27
2019-02-02T00:42:16.090Z,2.27
2019-02-02T00:43:16.160Z,2.27
2019-02-02T00:44:16.149Z,2.31
2019-02-02T00:45:24.522Z,2.30
2019-02-02T00:46:16.054Z,2.24
2019-02-02T00:47:24.853Z,2.24
2019-02-02T00:48:16.024Z,2.30
2019-02-02T00:49:16.065Z,2.20
2019-02-02T00:50:16.082Z,2.17
2019-02-02T00:51:16.153Z,2.20
2019-02-02T00:52:18.061Z,2.12
2019-02-02T00:53:15.969Z,2.10
2019-02-02T00:54:16.097Z,2.14
2019-02-02T00:55:16.022Z,2.12
2019-02-02T00:56:18.937Z,2.10
2019-02-02T00:57:15.931Z,2.14
2019-02-02T00:58:15.939Z,2.20
2019-02-02T00:59:15.929Z,2.07
2019-02-02T01:00:15.969Z,2.17
2019-02-02T01:01:15.981Z,2.10
2019-02-02T01:02:15.888Z,2.10
2019-02-02T01:03:15.877Z,2.16
2019-02-02T01:04:15.866Z,2.17
2019-02-02T01:05:15.845Z,2.09
2019-02-02T01:06:15.856Z,2.05
2019-02-02T01:07:15.850Z,2.10
2019-02-02T01:08:15.857Z,2.10
2019-02-02T01:09:15.858Z,2.16
2019-02-02T01:10:15.802Z,2.10
2019-02-02T01:11:15.829Z,2.06
2019-02-02T01:12:15.910Z,2.07
2019-02-02T01:13:15.764Z,2.07
2019-02-02T01:14:15.752Z,2.05
2019-02-02T01:15:15.770Z,2.05
2019-02-02T01:16:15.758Z,1.93
2019-02-02T01:17:15.752Z,1.95
2019-02-02T01:18:15.770Z,1.87
2019-02-02T01:19:17.718Z,2.00
2019-02-02T01:20:15.695Z,1.93
2019-02-02T01:21:15.719Z,1.98
2019-02-02T01:22:15.702Z,1.93
2019-02-02T01:23:15.710Z,1.86
2019-02-02T01:24:17.706Z,1.79
2019-02-02T01:25:15.690Z,1.88
2019-02-02T01:26:15.651Z,1.84
2019-02-02T01:27:15.707Z,1.87
2019-02-02T01:28:15.656Z,1.76
2019-02-02T01:29:15.599Z,1.77
2019-02-02T01:30:15.601Z,1.80
2019-02-02T01:31:15.579Z,1.81
2019-02-02T01:32:15.690Z,1.80
2019-02-02T01:33:17.643Z,1.72
2019-02-02T01:34:15.594Z,1.76
2019-02-02T01:35:15.567Z,1.76
2019-02-02T01:36:15.560Z,1.70
2019-02-02T01:37:15.577Z,1.70
2019-02-02T01:38:15.601Z,1.69
2019-02-02T01:39:15.587Z,1.70
2019-02-02T01:40:15.618Z,1.72
2019-02-02T01:41:15.498Z,1.73
2019-02-02T01:42:15.514Z,1.81
2019-02-02T01:43:15.441Z,1.84
2019-02-02T01:44:15.442Z,1.72
2019-02-02T01:45:15.502Z,1.79
2019-02-02T01:46:15.427Z,1.79
2019-02-02T01:47:15.437Z,1.80
2019-02-02T01:48:15.596Z,1.76
2019-02-02T01:49:15.484Z,1.79
2019-02-02T01:50:15.463Z,1.72
2019-02-02T01:51:15.405Z,1.86
2019-02-02T01:52:15.367Z,1.79
2019-02-02T01:53:17.454Z,1.84
2019-02-02T01:54:15.403Z,1.83
2019-02-02T01:55:15.391Z,1.81
2019-02-02T01:56:15.390Z,1.79
2019-02-02T01:57:15.393Z,1.86
2019-02-02T01:58:16.969Z,1.79
2019-02-02T01:59:15.358Z,1.93
2019-02-02T02:00:15.323Z,1.86
2019-02-02T02:01:15.332Z,1.91
2019-02-02T02:02:15.245Z,1.93
2019-02-02T02:03:15.385Z,1.93
2019-02-02T02:04:15.289Z,1.95
2019-02-02T02:05:15.224Z,1.98
2019-02-02T02:06:15.209Z,1.91
2019-02-02T02:07:15.206Z,2.00
2019-02-02T02:08:15.357Z,1.98
2019-02-02T02:09:15.238Z,2.00
2019-02-02T02:10:15.182Z,1.93
2019-02-02T02:11:15.174Z,2.00
2019-02-02T02:12:15.137Z,1.98
2019-02-02T02:13:15.257Z,1.95
2019-02-02T02:14:15.119Z,2.00
2019-02-02T02:15:15.111Z,1.88
2019-02-02T02:16:15.118Z,1.93
2019-02-02T02:17:15.077Z,1.99
2019-02-02T02:18:15.188Z,1.99
2019-02-02T02:19:15.165Z,1.84
2019-02-02T02:20:15.106Z,1.99
2019-02-02T02:21:15.124Z,1.90
2019-02-02T02:22:17.107Z,1.90
2019-02-02T02:23:15.033Z,1.84
2019-02-02T02:24:15.034Z,1.73
2019-02-02T02:25:15.008Z,1.87
2019-02-02T02:26:14.998Z,1.77
2019-02-02T02:27:16.985Z,1.84
2019-02-02T02:28:14.999Z,1.76
2019-02-02T02:29:14.981Z,1.76
2019-02-02T02:30:14.946Z,1.83
2019-02-02T02:31:14.949Z,1.73
2019-02-02T02:32:14.938Z,1.79
2019-02-02T02:33:14.975Z,1.79
2019-02-02T02:34:17.943Z,1.80
2019-02-02T02:35:14.889Z,1.76
2019-02-02T02:36:14.909Z,1.79
2019-02-02T02:38:15.933Z,1.76
2019-02-02T02:39:16.949Z,1.73
2019-02-02T02:40:35.864Z,1.83
2019-02-02T02:41:14.836Z,1.90
2019-02-02T02:42:14.843Z,1.87
2019-02-02T02:43:14.838Z,2.00
2019-02-02T02:44:14.856Z,1.77
2019-02-02T02:45:14.817Z,1.80
2019-02-02T02:46:14.761Z,1.81
2019-02-02T02:47:14.776Z,1.79
2019-02-02T02:48:16.789Z,1.87
2019-02-02T02:49:14.940Z,1.84
2019-02-02T02:51:15.792Z,1.87
2019-02-02T02:52:14.703Z,1.84
2019-02-02T02:53:14.696Z,1.87
2019-02-02T02:54:14.706Z,1.81
2019-02-02T02:55:14.730Z,1.81
2019-02-02T02:57:15.724Z,1.86
2019-02-02T02:58:14.644Z,1.84
2019-02-02T02:59:14.669Z,1.77
2019-02-02T03:01:15.690Z,1.77
2019-02-02T03:02:14.685Z,1.73
2019-02-02T03:03:14.677Z,1.81
2019-02-02T03:04:14.694Z,1.80
2019-02-02T03:05:14.575Z,1.79
2019-02-02T03:06:14.556Z,1.72
2019-02-02T03:07:14.576Z,1.77
2019-02-02T03:09:15.633Z,1.76
2019-02-02T03:10:14.588Z,1.81
2019-02-02T03:11:14.577Z,1.79
2019-02-02T03:12:14.588Z,1.80
2019-02-02T03:13:14.580Z,1.79
2019-02-02T03:14:14.590Z,1.72
2019-02-02T03:15:14.564Z,1.77
2019-02-02T03:16:14.464Z,1.83
2019-02-02T03:17:14.450Z,1.76
2019-02-02T03:18:14.436Z,1.80
2019-02-02T03:19:14.434Z,1.81
2019-02-02T03:20:14.449Z,1.86
2019-02-02T03:21:14.398Z,1.83
2019-02-02T03:22:14.389Z,1.91
2019-02-02T03:23:14.379Z,1.87
2019-02-02T03:24:14.380Z,1.86
2019-02-02T03:25:14.404Z,1.79
2019-02-02T03:26:14.373Z,1.87
2019-02-02T03:27:14.332Z,1.84
2019-02-02T03:28:14.318Z,1.84
2019-02-02T03:29:14.330Z,1.73
2019-02-02T03:30:14.436Z,1.84
2019-02-02T03:31:14.313Z,1.84
2019-02-02T03:32:14.295Z,1.77
2019-02-02T03:33:14.272Z,1.80
2019-02-02T03:34:14.265Z,1.83
2019-02-02T03:35:14.334Z,1.84
2019-02-02T03:36:14.251Z,1.86
2019-02-02T03:37:14.243Z,1.84
2019-02-02T03:38:14.226Z,1.90
2019-02-02T03:39:14.212Z,1.87
2019-02-02T03:40:14.249Z,1.84
2019-02-02T03:41:14.206Z,1.83
2019-02-02T03:42:14.187Z,1.77
2019-02-02T03:43:14.167Z,1.76
2019-02-02T03:44:14.150Z,1.80
2019-02-02T03:45:14.170Z,1.86
2019-02-02T03:49:45.684Z,1.88
2019-02-02T03:51:34.245Z,1.77
2019-02-02T03:52:55.226Z,1.83
2019-02-02T03:53:34.247Z,1.83
2019-02-02T03:54:34.222Z,1.80
2019-02-02T03:55:34.361Z,1.80
2019-02-02T03:56:34.194Z,1.87
2019-02-02T03:57:34.172Z,1.81
2019-02-02T03:58:34.170Z,1.80
2019-02-02T03:59:34.152Z,1.77
2019-02-02T04:00:34.177Z,1.72
2019-02-02T04:01:34.132Z,1.80
2019-02-02T04:02:34.132Z,1.80
2019-02-02T04:03:34.211Z,1.79
2019-02-02T04:04:34.104Z,1.77
2019-02-02T04:05:34.114Z,1.80
2019-02-02T04:06:34.126Z,1.84
2019-02-02T04:07:34.682Z,1.80
2019-02-02T04:08:34.056Z,1.77
2019-02-02T04:09:34.050Z,1.73
2019-02-02T04:10:34.051Z,1.77
2019-02-02T04:11:34.117Z,1.84
2019-02-02T04:12:34.016Z,1.84
2019-02-02T04:13:36.054Z,1.86
2019-02-02T04:14:34.003Z,1.77
2019-02-02T04:15:33.986Z,1.77
2019-02-02T04:16:33.999Z,1.81
2019-02-02T04:17:33.983Z,1.76
2019-02-02T04:18:33.948Z,1.81
2019-02-02T04:19:33.944Z,1.77
2019-02-02T04:20:33.968Z,1.77
2019-02-02T04:21:33.956Z,1.77
2019-02-02T04:22:35.816Z,1.83
2019-02-02T04:23:33.930Z,1.80
2019-02-02T04:24:33.888Z,1.84
2019-02-02T04:25:33.880Z,1.80
2019-02-02T04:26:33.901Z,1.81
2019-02-02T04:27:33.862Z,1.83
2019-02-02T04:28:33.862Z,1.79
2019-02-02T04:29:33.846Z,1.79
2019-02-02T04:31:34.964Z,1.73
2019-02-02T04:32:33.808Z,1.79
2019-02-02T04:33:33.838Z,1.86
2019-02-02T04:34:33.801Z,1.73
2019-02-02T04:35:33.778Z,1.79
2019-02-02T04:36:33.792Z,1.73
2019-02-02T04:37:33.758Z,1.81
2019-02-02T04:38:33.746Z,1.76
2019-02-02T04:39:33.750Z,1.81
2019-02-02T04:40:33.722Z,1.79
2019-02-02T04:41:36.720Z,1.79
2019-02-02T04:42:33.752Z,1.76
2019-02-02T04:43:42.714Z,1.79
2019-02-02T04:44:33.676Z,1.79
2019-02-02T04:45:42.723Z,1.80
2019-02-02T04:46:33.687Z,1.80
2019-02-02T04:47:33.687Z,1.80
2019-02-02T04:48:33.636Z,1.81
2019-02-02T04:49:33.637Z,1.77
2019-02-02T04:50:33.642Z,1.77
2019-02-02T04:51:33.621Z,1.79
2019-02-02T04:52:33.624Z,1.72
2019-02-02T04:53:33.586Z,1.72
2019-02-02T04:54:33.571Z,1.73
2019-02-02T04:55:33.609Z,1.79
2019-02-02T04:56:33.616Z,1.73
2019-02-02T04:57:33.561Z,1.80
2019-02-02T04:58:33.532Z,1.81
2019-02-02T04:59:33.523Z,1.79
2019-02-02T05:00:33.518Z,1.81
2019-02-02T05:01:33.507Z,1.73
2019-02-02T05:02:33.527Z,1.76
2019-02-02T05:03:33.501Z,1.77
2019-02-02T05:04:33.508Z,1.73
2019-02-02T05:05:33.456Z,1.77
2019-02-02T05:06:33.455Z,1.73
2019-02-02T05:07:33.547Z,1.77
2019-02-02T05:08:33.439Z,1.79
2019-02-02T05:09:33.432Z,1.81
2019-02-02T05:10:33.411Z,1.83
2019-02-02T05:11:33.401Z,1.83
2019-02-02T05:12:33.472Z,1.76
2019-02-02T05:13:35.383Z,1.77
2019-02-02T05:14:35.372Z,1.72
2019-02-02T05:15:33.354Z,1.81
2019-02-02T05:16:33.344Z,1.77
2019-02-02T05:17:33.398Z,1.84
2019-02-02T05:18:33.371Z,1.77
2019-02-02T05:19:33.358Z,1.79
2019-02-02T05:20:33.306Z,1.81
2019-02-02T05:21:33.288Z,1.77
2019-02-02T05:22:33.281Z,1.86
2019-02-02T05:23:33.292Z,1.80
2019-02-02T05:24:33.277Z,1.79
2019-02-02T05:25:36.200Z,1.80
2019-02-02T05:26:33.244Z,1.73
2019-02-02T05:27:33.222Z,1.83
2019-02-02T05:28:33.235Z,1.81
2019-02-02T05:29:41.076Z,1.79
2019-02-02T05:30:34.206Z,1.80
2019-02-02T05:31:33.189Z,1.80
2019-02-02T05:32:33.196Z,1.79
2019-02-02T05:33:33.197Z,1.80
2019-02-02T05:34:33.154Z,1.80
2019-02-02T05:35:33.141Z,1.84
2019-02-02T05:36:33.173Z,1.79
2019-02-02T05:37:33.131Z,1.84
2019-02-02T05:38:33.135Z,1.77
2019-02-02T05:39:33.094Z,1.81
2019-02-02T05:40:33.094Z,1.84
2019-02-02T05:41:33.087Z,1.80
2019-02-02T05:42:33.098Z,1.83
2019-02-02T05:43:33.091Z,1.80
2019-02-02T05:44:42.255Z,1.76
2019-02-02T05:45:33.048Z,1.80
2019-02-02T05:46:42.337Z,1.77
2019-02-02T05:47:33.052Z,1.88
2019-02-02T05:48:35.070Z,1.76
2019-02-02T05:49:33.011Z,1.80
2019-02-02T05:50:33.007Z,1.84
2019-02-02T05:51:32.983Z,1.84
2019-02-02T05:52:33.788Z,1.81
2019-02-02T05:53:32.984Z,1.84
2019-02-02T05:54:32.947Z,1.88
2019-02-02T05:55:32.930Z,1.84
2019-02-02T05:56:32.921Z,1.84
2019-02-02T05:57:32.913Z,1.93
2019-02-02T05:58:32.933Z,1.87
2019-02-02T05:59:32.886Z,1.88
2019-02-02T06:00:32.906Z,1.81
2019-02-02T06:01:32.891Z,1.87
2019-02-02T06:02:32.863Z,1.91
2019-02-02T06:03:32.880Z,1.93
2019-02-02T06:04:32.836Z,1.87
2019-02-02T06:05:32.844Z,1.95
2019-02-02T06:06:32.819Z,1.86
2019-02-02T06:08:33.961Z,1.91
2019-02-02T06:09:32.847Z,1.93
2019-02-02T06:10:34.805Z,1.95
2019-02-02T06:11:32.781Z,1.93
2019-02-02T06:12:32.767Z,1.93
2019-02-02T06:13:32.807Z,1.95
2019-02-02T06:14:32.773Z,1.91
2019-02-02T06:15:32.747Z,1.98
2019-02-02T06:16:32.709Z,1.93
2019-02-02T06:17:32.713Z,1.93
2019-02-02T06:18:32.739Z,2.00
2019-02-02T06:19:32.759Z,1.98
2019-02-02T06:20:32.682Z,1.98
2019-02-02T06:21:32.661Z,1.98
2019-02-02T06:22:32.655Z,1.93
2019-02-02T06:23:32.637Z,1.98
2019-02-02T06:24:32.682Z,2.05
2019-02-02T06:25:32.625Z,1.91
2019-02-02T06:26:32.611Z,1.91
2019-02-02T06:27:32.597Z,1.84
2019-02-02T06:28:32.597Z,1.90
2019-02-02T06:29:32.592Z,1.93
2019-02-02T06:30:32.624Z,1.91
2019-02-02T06:32:33.617Z,1.87
2019-02-02T06:33:53.533Z,1.86
2019-02-02T06:34:53.566Z,1.80
2019-02-02T06:35:32.527Z,1.81
2019-02-02T06:36:32.511Z,1.79
2019-02-02T06:37:53.523Z,1.77
2019-02-02T06:38:53.491Z,1.93
2019-02-02T06:39:32.539Z,1.91
2019-02-02T06:40:32.483Z,1.99
2019-02-02T06:41:32.451Z,1.93
2019-02-02T06:42:32.441Z,1.95
2019-02-02T06:44:33.533Z,1.83
2019-02-02T06:45:32.477Z,1.93
2019-02-02T06:46:43.047Z,1.77
2019-02-02T06:48:33.445Z,1.84
2019-02-02T06:49:32.357Z,1.98
2019-02-02T06:50:32.428Z,1.95
2019-02-02T06:52:33.425Z,1.98
2019-02-02T06:53:32.339Z,1.91
2019-02-02T06:54:33.981Z,1.93
2019-02-02T06:55:32.407Z,1.99
2019-02-02T06:56:32.289Z,1.98
2019-02-02T06:57:32.281Z,1.98
2019-02-02T06:58:32.274Z,1.95
2019-02-02T06:59:32.293Z,1.98
2019-02-02T07:00:32.511Z,1.90
2019-02-02T07:02:33.345Z,1.93
2019-02-02T07:03:32.235Z,1.95
2019-02-02T07:04:32.221Z,1.99
2019-02-02T07:05:33.920Z,2.02
2019-02-02T07:06:32.199Z,1.90
2019-02-02T07:07:32.199Z,1.93
2019-02-02T07:08:32.183Z,1.99
2019-02-02T07:09:32.190Z,1.99
2019-02-02T07:10:32.165Z,2.00
2019-02-02T07:11:32.131Z,1.95
2019-02-02T07:12:32.126Z,1.99
2019-02-02T07:13:32.138Z,1.99
2019-02-02T07:14:32.169Z,1.99
2019-02-02T07:15:32.221Z,1.95
2019-02-02T07:16:32.094Z,1.99
2019-02-02T07:17:32.071Z,1.98
2019-02-02T07:18:32.081Z,1.98
2019-02-02T07:19:32.087Z,1.98
2019-02-02T07:20:32.139Z,1.99
2019-02-02T07:21:32.077Z,2.00
2019-02-02T07:22:32.064Z,2.00
2019-02-02T07:23:32.034Z,1.95
2019-02-02T07:24:34.045Z,2.02
2019-02-02T07:25:32.111Z,1.99
2019-02-02T07:26:32.005Z,1.99
2019-02-02T07:27:32.021Z,1.95
2019-02-02T07:28:31.965Z,1.90
2019-02-02T07:29:31.945Z,1.81
2019-02-02T07:30:32.043Z,1.83
2019-02-02T07:31:31.970Z,1.99
2019-02-02T07:33:33.177Z,2.00
2019-02-02T07:34:52.956Z,1.91
2019-02-02T07:35:54.135Z,2.00
2019-02-02T07:36:52.913Z,1.88
2019-02-02T07:37:31.923Z,1.99
2019-02-02T07:38:31.902Z,1.99
2019-02-02T07:39:31.892Z,1.93
2019-02-02T07:40:31.885Z,2.02
2019-02-02T07:42:32.954Z,2.05
2019-02-02T07:43:31.889Z,2.02
2019-02-02T07:44:31.874Z,2.05
2019-02-02T07:45:31.893Z,2.07
2019-02-02T07:46:31.911Z,2.05
2019-02-02T07:47:31.847Z,2.14
2019-02-02T07:48:31.760Z,2.09
2019-02-02T07:49:31.749Z,2.16
2019-02-02T07:50:31.736Z,2.14
2019-02-02T07:51:31.979Z,2.14
2019-02-02T07:52:31.781Z,2.09
2019-02-02T07:53:31.749Z,2.14
2019-02-02T07:54:33.741Z,2.07
2019-02-02T07:55:31.726Z,2.16
2019-02-02T07:56:31.815Z,2.14
2019-02-02T07:57:31.839Z,2.17
2019-02-02T07:58:31.711Z,2.02
2019-02-02T07:59:31.725Z,2.07
2019-02-02T08:00:40.322Z,2.09
2019-02-02T08:01:32.768Z,2.18
2019-02-02T08:02:31.681Z,2.14
2019-02-02T08:03:31.657Z,2.06
2019-02-02T08:04:31.657Z,2.20
2019-02-02T08:05:31.637Z,2.20
2019-02-02T08:06:31.683Z,2.28
2019-02-02T08:07:31.611Z,2.20
2019-02-02T08:08:31.566Z,2.17
2019-02-02T08:09:31.556Z,2.18
2019-02-02T08:10:31.598Z,2.24
2019-02-02T08:11:31.622Z,2.23
2019-02-02T08:12:31.578Z,2.21
2019-02-02T08:13:31.537Z,2.28
2019-02-02T08:14:31.496Z,2.25
2019-02-02T08:15:31.538Z,2.25
2019-02-02T08:16:33.658Z,2.34
2019-02-02T08:17:32.418Z,2.38
2019-02-02T08:18:31.489Z,2.38
2019-02-02T08:19:31.588Z,2.34
2019-02-02T08:20:31.488Z,2.35
2019-02-02T08:21:31.456Z,2.42
2019-02-02T08:22:31.537Z,2.41
2019-02-02T08:23:31.463Z,2.34
2019-02-02T08:24:31.422Z,2.34
2019-02-02T08:25:31.401Z,2.34
2019-02-02T08:26:31.372Z,2.34
2019-02-02T08:27:31.373Z,2.27
2019-02-02T08:28:31.337Z,2.27
2019-02-02T08:29:31.328Z,2.39
2019-02-02T08:30:31.362Z,2.42
2019-02-02T08:31:31.370Z,2.38
2019-02-02T08:32:31.319Z,2.41
2019-02-02T08:33:31.286Z,2.38
2019-02-02T08:34:31.338Z,2.35
2019-02-02T08:35:31.275Z,2.41
2019-02-02T08:36:31.289Z,2.39
2019-02-02T08:37:31.383Z,2.43
2019-02-02T08:38:31.279Z,2.43
2019-02-02T08:39:35.309Z,2.38
2019-02-02T08:41:32.284Z,2.53
2019-02-02T08:42:31.210Z,2.42
2019-02-02T08:43:31.181Z,2.43
2019-02-02T08:44:31.238Z,2.43
2019-02-02T08:45:31.193Z,2.42
2019-02-02T08:46:31.173Z,2.39
2019-02-02T08:47:32.808Z,2.34
2019-02-02T08:48:31.177Z,2.35
2019-02-02T08:49:31.116Z,2.24
2019-02-02T08:50:31.154Z,2.35
2019-02-02T08:51:31.153Z,2.27
2019-02-02T08:52:31.158Z,2.28
2019-02-02T08:53:31.200Z,2.28
2019-02-02T08:54:31.118Z,2.23
2019-02-02T08:55:31.156Z,2.23
2019-02-02T08:56:31.042Z,2.16
2019-02-02T08:57:31.086Z,2.14
2019-02-02T08:58:31.033Z,2.18
2019-02-02T08:59:31.017Z,2.20
2019-02-02T09:00:31.044Z,2.21
2019-02-02T09:01:30.991Z,2.16
2019-02-02T09:02:31.046Z,2.10
2019-02-02T09:03:31.131Z,2.10
2019-02-02T09:04:31.022Z,2.09
2019-02-02T09:05:30.997Z,2.07
2019-02-02T09:06:38.687Z,2.05
2019-02-02T09:07:31.915Z,2.09
2019-02-02T09:08:30.946Z,1.93
2019-02-02T09:09:30.911Z,1.95
2019-02-02T09:10:30.927Z,1.87
2019-02-02T09:11:30.951Z,2.02
2019-02-02T09:12:30.921Z,1.98
2019-02-02T09:13:30.890Z,1.93
2019-02-02T09:14:30.896Z,1.93
2019-02-02T09:15:30.899Z,2.02
2019-02-02T09:16:30.898Z,1.95
2019-02-02T09:17:30.876Z,1.95
2019-02-02T09:18:32.434Z,2.02
2019-02-02T09:20:31.909Z,2.09
2019-02-02T09:21:30.788Z,2.10
2019-02-02T09:22:30.789Z,2.17
2019-02-02T09:24:31.875Z,2.10
2019-02-02T09:25:32.839Z,2.21
2019-02-02T09:26:30.725Z,2.23
2019-02-02T09:28:31.783Z,2.10
2019-02-02T09:29:30.713Z,2.25
2019-02-02T09:30:30.742Z,2.24
2019-02-02T09:31:30.766Z,2.16
2019-02-02T09:32:32.768Z,2.14
2019-02-02T09:33:30.835Z,2.14
2019-02-02T09:34:30.709Z,2.14
2019-02-02T09:35:30.640Z,2.16
2019-02-02T09:36:30.662Z,2.25
2019-02-02T09:37:30.616Z,2.20
2019-02-02T09:38:30.738Z,2.24
2019-02-02T09:39:30.658Z,2.24
2019-02-02T09:40:30.660Z,2.28
2019-02-02T09:41:30.644Z,2.28
2019-02-02T09:42:30.576Z,2.38
2019-02-02T09:43:30.554Z,2.38
2019-02-02T09:44:30.593Z,2.38
2019-02-02T09:45:30.600Z,2.46
2019-02-02T09:46:32.624Z,2.49
2019-02-02T09:47:30.567Z,2.49
2019-02-02T09:48:30.508Z,2.38
2019-02-02T09:49:33.488Z,2.36
2019-02-02T09:50:30.528Z,2.39
2019-02-02T09:51:30.536Z,2.36
2019-02-02T09:52:30.543Z,2.39
2019-02-02T09:53:39.334Z,2.35
2019-02-02T09:54:30.521Z,2.31
2019-02-02T09:55:30.576Z,2.31
2019-02-02T09:56:32.638Z,2.27
2019-02-02T09:57:30.500Z,2.39
2019-02-02T09:58:30.428Z,2.38
2019-02-02T09:59:38.581Z,2.41
2019-02-02T10:00:31.551Z,2.35
2019-02-02T10:01:35.439Z,2.38
2019-02-02T10:02:31.364Z,2.43
2019-02-02T10:03:30.341Z,2.46
2019-02-02T10:04:32.471Z,2.53
2019-02-02T10:05:32.497Z,2.54
2019-02-02T10:06:30.372Z,2.57
2019-02-02T10:07:30.357Z,2.52
2019-02-02T10:08:30.289Z,2.52
2019-02-02T10:09:30.353Z,2.56
2019-02-02T10:11:31.341Z,2.53
2019-02-02T10:12:51.275Z,2.54
2019-02-02T10:13:30.292Z,2.49
2019-02-02T10:14:30.252Z,2.54
2019-02-02T10:15:30.395Z,2.53
2019-02-02T10:16:30.300Z,2.59
2019-02-02T10:17:30.257Z,2.52
2019-02-02T10:18:30.190Z,2.52
2019-02-02T10:19:32.187Z,2.52
2019-02-02T10:20:33.509Z,2.56
2019-02-02T10:21:30.230Z,2.59
2019-02-02T10:22:30.208Z,2.53
2019-02-02T10:23:30.148Z,2.53
2019-02-02T10:24:30.157Z,2.54
2019-02-02T10:25:30.259Z,2.57
2019-02-02T10:26:30.172Z,2.56
2019-02-02T10:27:30.172Z,2.53
2019-02-02T10:28:34.189Z,2.53
2019-02-02T10:29:30.258Z,2.57
2019-02-02T10:30:30.208Z,2.59
2019-02-02T10:31:39.142Z,2.59
2019-02-02T10:32:31.143Z,2.61
2019-02-02T10:33:30.122Z,2.71
2019-02-02T10:34:32.972Z,2.72
2019-02-02T10:35:30.048Z,2.60
2019-02-02T10:36:30.040Z,2.56
2019-02-02T10:37:29.996Z,2.71
2019-02-02T10:38:29.976Z,2.64
2019-02-02T10:39:29.976Z,2.69
2019-02-02T10:40:30.336Z,2.64
2019-02-02T10:41:31.569Z,2.67
2019-02-02T10:42:29.946Z,2.71
2019-02-02T10:43:29.936Z,2.57
2019-02-02T10:44:29.907Z,2.69
2019-02-02T10:45:29.990Z,2.67
2019-02-02T10:46:30.178Z,2.57
2019-02-02T10:47:29.945Z,2.56
2019-02-02T10:48:29.892Z,2.60
2019-02-02T10:49:29.895Z,2.53
2019-02-02T10:50:29.855Z,2.56
2019-02-02T10:51:29.970Z,2.57
2019-02-02T10:52:29.942Z,2.54
2019-02-02T10:53:29.880Z,2.52
2019-02-02T10:54:29.955Z,2.63
2019-02-02T10:55:29.871Z,2.54
2019-02-02T10:56:33.877Z,2.54
2019-02-02T10:57:31.550Z,2.49
2019-02-02T10:58:29.783Z,2.56
2019-02-02T10:59:29.822Z,2.54
2019-02-02T11:00:31.927Z,2.52
2019-02-02T11:01:29.866Z,2.49
2019-02-02T11:02:31.482Z,2.57
2019-02-02T11:03:29.727Z,2.49
2019-02-02T11:04:29.770Z,2.59
2019-02-02T11:05:29.791Z,2.56
2019-02-02T11:06:31.888Z,2.53
2019-02-02T11:07:29.943Z,2.63
2019-02-02T11:08:32.725Z,2.60
2019-02-02T11:10:30.920Z,2.60
2019-02-02T11:11:50.653Z,2.60
2019-02-02T11:12:29.653Z,2.69
2019-02-02T11:13:29.802Z,2.63
2019-02-02T11:14:50.743Z,2.71
2019-02-02T11:15:29.700Z,2.59
2019-02-02T11:16:29.718Z,2.66
2019-02-02T11:17:29.672Z,2.61
2019-02-02T11:18:29.584Z,2.72
2019-02-02T11:19:29.698Z,2.61
2019-02-02T11:20:29.565Z,2.61
2019-02-02T11:21:29.576Z,2.56
2019-02-02T11:22:29.544Z,2.61
2019-02-02T11:23:38.066Z,2.60
2019-02-02T11:24:29.598Z,2.61
2019-02-02T11:25:29.631Z,2.54
2019-02-02T11:26:29.468Z,2.53
2019-02-02T11:27:29.582Z,2.53
2019-02-02T11:28:29.613Z,2.54
2019-02-02T11:29:29.473Z,2.53
2019-02-02T11:30:29.635Z,2.49
2019-02-02T11:31:29.430Z,2.48
2019-02-02T11:32:29.412Z,2.54
2019-02-02T11:33:29.495Z,2.63
2019-02-02T11:34:34.523Z,2.52
2019-02-02T11:36:30.507Z,2.53
2019-02-02T11:37:29.376Z,2.54
2019-02-02T11:38:29.358Z,2.54
2019-02-02T11:39:29.370Z,2.49
2019-02-02T11:40:29.413Z,2.46
2019-02-02T11:41:29.383Z,2.49
2019-02-02T11:43:30.565Z,2.35
2019-02-02T11:44:29.410Z,2.52
2019-02-02T11:45:29.276Z,2.49
2019-02-02T11:46:29.283Z,2.49
2019-02-02T11:47:29.262Z,2.41
2019-02-02T11:48:29.238Z,2.39
2019-02-02T11:49:29.404Z,2.38
2019-02-02T11:50:29.338Z,2.38
2019-02-02T11:51:29.258Z,2.41
2019-02-02T11:52:29.208Z,2.39
2019-02-02T11:53:29.262Z,2.39
2019-02-02T11:54:31.273Z,2.43
2019-02-02T11:55:29.244Z,2.45
2019-02-02T11:56:29.354Z,2.42
2019-02-02T11:57:29.152Z,2.42
2019-02-02T11:58:31.249Z,2.42
2019-02-02T11:59:29.211Z,2.35
2019-02-02T12:00:29.270Z,2.38
2019-02-02T12:02:30.199Z,2.42
2019-02-02T12:04:30.190Z,2.39
2019-02-02T12:06:40.551Z,2.43
2019-02-02T12:09:11.104Z,2.42
2019-02-02T12:10:53.256Z,2.24
2019-02-02T12:11:50.135Z,2.23
2019-02-02T12:12:50.034Z,2.23
2019-02-02T12:13:50.033Z,2.23
2019-02-02T12:14:50.035Z,2.20
2019-02-02T12:16:51.123Z,2.17
2019-02-02T12:17:52.098Z,2.20
2019-02-02T12:18:52.062Z,2.25
2019-02-02T12:19:52.048Z,2.23
2019-02-02T12:20:52.054Z,2.16
2019-02-02T12:21:52.150Z,2.16
2019-02-02T12:22:49.950Z,2.16
2019-02-02T12:23:49.945Z,2.10
2019-02-02T12:24:49.938Z,2.16
2019-02-02T12:25:53.008Z,2.20
2019-02-02T12:26:52.107Z,2.17
2019-02-02T12:27:51.964Z,2.24
2019-02-02T12:28:51.971Z,2.23
2019-02-02T12:29:49.890Z,2.31
2019-02-02T12:30:49.940Z,2.30
2019-02-02T12:31:50.009Z,2.27
2019-02-02T12:32:49.912Z,2.31
2019-02-02T12:33:53.909Z,2.38
2019-02-02T12:34:49.852Z,2.41
2019-02-02T12:35:49.888Z,2.45
2019-02-02T12:38:50.873Z,2.53
2019-02-02T12:39:49.770Z,2.54
2019-02-02T12:40:51.861Z,2.46
2019-02-02T12:41:49.807Z,2.52
2019-02-02T12:42:49.751Z,2.42
2019-02-02T12:43:49.731Z,2.42
2019-02-02T12:44:49.722Z,2.42
2019-02-02T12:45:49.834Z,2.31
2019-02-02T12:46:49.851Z,2.23
2019-02-02T12:47:49.676Z,2.18
2019-02-02T12:48:49.661Z,2.21
2019-02-02T12:49:53.764Z,2.10
2019-02-02T12:50:49.688Z,2.12
2019-02-02T12:51:49.812Z,2.03
2019-02-02T12:52:49.687Z,2.05
2019-02-02T12:53:49.611Z,2.02
2019-02-02T12:54:49.607Z,2.02
2019-02-02T12:55:49.655Z,2.10
2019-02-02T12:56:51.691Z,2.05
2019-02-02T12:57:49.779Z,1.93
2019-02-02T12:58:50.076Z,2.02
2019-02-02T12:59:49.556Z,2.10
2019-02-02T13:00:49.611Z,2.07
2019-02-02T13:01:49.618Z,2.12
2019-02-02T13:02:51.188Z,2.05
2019-02-02T13:04:01.720Z,2.05
2019-02-02T13:04:50.519Z,2.09
2019-02-02T13:05:58.580Z,2.05
2019-02-02T13:06:52.105Z,2.16
2019-02-02T13:07:49.485Z,2.06
2019-02-02T13:08:49.482Z,2.09
2019-02-02T13:09:49.434Z,2.05
2019-02-02T13:10:58.586Z,2.03
2019-02-02T13:11:49.419Z,2.09
2019-02-02T13:12:49.434Z,2.02
2019-02-02T13:13:49.412Z,2.00
2019-02-02T13:14:49.399Z,1.98
2019-02-02T13:15:49.446Z,2.00
2019-02-02T13:16:50.237Z,1.84
2019-02-02T13:17:49.423Z,1.90
2019-02-02T13:18:49.391Z,1.91
2019-02-02T13:19:49.352Z,1.98
2019-02-02T13:20:49.455Z,1.90
2019-02-02T13:21:49.394Z,1.95
2019-02-02T13:22:49.358Z,1.91
2019-02-02T13:23:49.297Z,1.91
2019-02-02T13:24:49.381Z,1.99
2019-02-02T13:25:49.330Z,1.93
2019-02-02T13:26:53.370Z,1.93
2019-02-02T13:27:49.444Z,1.93
2019-02-02T13:28:49.248Z,1.99
2019-02-02T13:29:52.054Z,2.05
2019-02-02T13:30:51.275Z,2.14
2019-02-02T13:31:49.303Z,2.07
2019-02-02T13:32:50.317Z,2.07
2019-02-02T13:33:51.271Z,1.98
2019-02-02T13:34:49.178Z,1.90
2019-02-02T13:35:49.224Z,1.80
2019-02-02T13:36:49.227Z,1.80
2019-02-02T13:37:49.343Z,1.81
2019-02-02T13:38:49.151Z,1.81
2019-02-02T13:39:49.117Z,1.79
2019-02-02T13:40:49.107Z,1.77
2019-02-02T13:41:49.137Z,1.83
2019-02-02T13:42:49.092Z,1.77
2019-02-02T13:43:49.122Z,1.77
2019-02-02T13:44:49.079Z,1.69
2019-02-02T13:45:49.063Z,1.63
2019-02-02T13:46:49.053Z,1.52
2019-02-02T13:47:49.045Z,1.54
2019-02-02T13:48:51.129Z,1.60
2019-02-02T13:49:49.023Z,1.62
2019-02-02T13:50:49.085Z,1.62
2019-02-02T13:51:49.039Z,1.63
2019-02-02T13:52:48.981Z,1.55
2019-02-02T13:53:48.999Z,1.55
2019-02-02T13:54:48.973Z,1.52